Time;durP1;ratioP1;P1;durP2;ratioP2;P2;SDS_P1;SDS_P2;PMS_P1;PMS_P2;Temp;Humidity;BMP_temperature;BMP_pressure;BME280_temperature;BME280_humidity;BME280_pressure;Samples;Min_cycle;Max_cycle;Signal;HPM_P1;HPM_P2
2023/08/26 00:01:58;;;;;;;9.75;6.50;;;20.80;99.90;;;;;;4991451;28;20184;-31
2023/08/26 00:04:24;;;;;;;7.20;5.95;;;20.90;99.90;;;;;;5010764;28;20191;-31
2023/08/26 00:06:50;;;;;;;7.53;5.85;;;20.90;99.90;;;;;;4990631;28;20215;-30
2023/08/26 00:09:16;;;;;;;6.10;5.50;;;20.90;99.90;;;;;;4993182;28;20199;-31
2023/08/26 00:11:42;;;;;;;6.57;5.80;;;20.90;99.90;;;;;;4997653;28;20469;-31
2023/08/26 00:14:09;;;;;;;10.05;6.30;;;20.90;99.90;;;;;;4985905;28;20207;-32
2023/08/26 00:16:35;;;;;;;8.68;6.30;;;20.90;99.90;;;;;;4989528;28;20211;-32
2023/08/26 00:19:01;;;;;;;7.70;5.95;;;20.90;99.90;;;;;;4974084;28;20262;-31
2023/08/26 00:21:27;;;;;;;6.60;5.50;;;20.80;99.90;;;;;;4994407;28;20191;-32
2023/08/26 00:23:53;;;;;;;8.13;6.18;;;20.90;99.90;;;;;;4993755;28;20234;-32
2023/08/26 00:26:19;;;;;;;7.78;5.90;;;20.90;99.90;;;;;;5009065;28;20191;-32
2023/08/26 00:28:45;;;;;;;6.55;5.43;;;20.90;99.90;;;;;;4990689;28;20206;-31
2023/08/26 00:31:11;;;;;;;6.53;5.78;;;20.80;99.90;;;;;;4994380;28;20270;-31
2023/08/26 00:33:37;;;;;;;6.20;5.30;;;20.80;99.90;;;;;;5010670;28;20175;-31
2023/08/26 00:36:03;;;;;;;8.55;5.90;;;20.80;99.90;;;;;;4990970;28;20214;-30
2023/08/26 00:38:29;;;;;;;5.88;5.13;;;20.90;99.90;;;;;;4994028;28;20199;-31
2023/08/26 00:40:55;;;;;;;8.02;5.32;;;20.80;99.90;;;;;;4994348;28;20634;-31
2023/08/26 00:43:21;;;;;;;7.05;5.57;;;20.80;99.90;;;;;;4993115;28;20238;-32
2023/08/26 00:45:50;;;;;;;10.98;6.28;;;20.80;99.90;;;;;;4993759;28;20187;-32
2023/08/26 00:48:18;;;;;;;9.25;6.07;;;20.70;99.90;;;;;;4983808;28;20258;-33
2023/08/26 00:50:45;;;;;;;9.40;6.45;;;20.60;99.90;;;;;;4976826;28;20191;-32
2023/08/26 00:53:14;;;;;;;9.05;6.53;;;20.60;99.90;;;;;;4991899;28;20191;-32
2023/08/26 00:55:40;;;;;;;9.35;5.82;;;20.50;99.90;;;;;;4990313;28;20203;-31
2023/08/26 00:58:07;;;;;;;6.97;5.43;;;20.30;99.90;;;;;;4985539;28;20261;-31
2023/08/26 01:00:36;;;;;;;7.38;5.32;;;20.20;99.90;;;;;;4990816;28;20172;-31
2023/08/26 01:03:09;;;;;;;6.68;5.75;;;20.20;99.90;;;;;;5010231;28;20194;-31
2023/08/26 01:05:34;;;;;;;8.77;5.85;;;20.10;99.90;;;;;;4993612;28;20191;-31
2023/08/26 01:08:03;;;;;;;9.27;6.68;;;20.10;99.90;;;;;;4993433;28;20290;-31
2023/08/26 01:10:38;;;;;;;9.73;5.40;;;20.10;99.90;;;;;;4990219;28;20192;-31
2023/08/26 01:13:09;;;;;;;8.95;6.22;;;20.10;99.90;;;;;;5009736;28;20182;-31
2023/08/26 01:15:40;;;;;;;7.85;5.63;;;20.10;99.90;;;;;;4990143;28;20212;-31
2023/08/26 01:18:07;;;;;;;7.35;6.05;;;20.20;99.90;;;;;;4973869;28;20299;-31
2023/08/26 01:20:34;;;;;;;7.97;5.78;;;20.20;99.90;;;;;;4973877;28;20176;-31
2023/08/26 01:23:00;;;;;;;7.60;5.97;;;20.30;99.90;;;;;;4974147;28;20180;-31
2023/08/26 01:25:26;;;;;;;6.72;5.40;;;20.30;99.90;;;;;;4973633;28;20183;-31
2023/08/26 01:27:54;;;;;;;8.48;5.55;;;20.40;99.90;;;;;;4990114;28;20203;-31
2023/08/26 01:30:23;;;;;;;6.43;5.15;;;20.30;99.90;;;;;;4978637;28;20188;-31
2023/08/26 01:32:56;;;;;;;5.85;4.93;;;20.30;99.90;;;;;;4997634;28;20179;-31
2023/08/26 01:35:30;;;;;;;7.28;5.32;;;20.40;99.90;;;;;;4997202;28;20286;-30
2023/08/26 01:37:58;;;;;;;6.68;5.20;;;20.40;99.90;;;;;;4993680;28;20283;-31
2023/08/26 01:40:25;;;;;;;5.85;5.13;;;20.50;99.90;;;;;;4997508;28;20346;-30
2023/08/26 01:42:53;;;;;;;8.68;5.40;;;20.50;99.90;;;;;;4994157;28;20231;-31
2023/08/26 01:45:19;;;;;;;6.32;5.63;;;20.50;99.90;;;;;;5013590;28;20183;-31
2023/08/26 01:47:45;;;;;;;6.45;4.93;;;20.50;99.90;;;;;;4996983;28;20203;-31
2023/08/26 01:50:11;;;;;;;6.38;5.32;;;20.50;99.90;;;;;;4994596;28;20195;-31
2023/08/26 01:52:37;;;;;;;8.10;5.38;;;20.40;99.90;;;;;;4997069;28;20191;-31
2023/08/26 01:55:03;;;;;;;7.47;5.50;;;20.50;99.90;;;;;;4997229;28;20241;-31
2023/08/26 01:57:29;;;;;;;8.32;5.60;;;20.40;99.90;;;;;;4996637;28;20175;-31
2023/08/26 01:59:56;;;;;;;9.50;5.47;;;20.40;99.90;;;;;;4991611;28;20182;-31
2023/08/26 02:02:22;;;;;;;6.22;5.57;;;20.50;99.90;;;;;;4997236;28;20262;-31
2023/08/26 02:04:48;;;;;;;6.40;5.60;;;20.50;99.90;;;;;;4993684;28;20236;-31
2023/08/26 02:07:16;;;;;;;8.00;5.35;;;20.50;99.90;;;;;;5012758;28;20250;-31
2023/08/26 02:09:42;;;;;;;5.88;5.30;;;20.50;99.90;;;;;;4993605;28;20204;-31
2023/08/26 02:12:08;;;;;;;7.05;5.10;;;20.50;99.90;;;;;;4996600;28;20195;-31
2023/08/26 02:14:34;;;;;;;7.45;5.13;;;20.50;99.90;;;;;;4993528;28;20279;-31
2023/08/26 02:17:00;;;;;;;8.80;5.40;;;20.50;99.90;;;;;;4996712;28;20194;-30
2023/08/26 02:19:25;;;;;;;7.85;5.70;;;20.50;99.90;;;;;;4996603;28;20269;-31
2023/08/26 02:21:52;;;;;;;7.15;5.57;;;20.50;99.90;;;;;;4997122;28;20179;-31
2023/08/26 02:24:22;;;;;;;6.50;5.32;;;20.50;99.90;;;;;;4997079;28;20234;-31
2023/08/26 02:26:48;;;;;;;6.22;5.63;;;20.50;99.90;;;;;;4996230;28;20191;-31
2023/08/26 02:29:14;;;;;;;6.25;5.20;;;20.50;99.90;;;;;;4997321;28;20207;-30
2023/08/26 02:31:40;;;;;;;6.78;5.30;;;20.40;99.90;;;;;;4984195;28;20176;-31
2023/08/26 02:34:05;;;;;;;5.18;4.65;;;20.50;99.90;;;;;;4977124;28;20278;-31
2023/08/26 02:36:31;;;;;;;5.85;5.00;;;20.50;99.90;;;;;;4976748;28;20216;-31
2023/08/26 02:38:57;;;;;;;6.70;5.28;;;20.50;99.90;;;;;;4987962;28;20207;-30
2023/08/26 02:41:23;;;;;;;9.65;5.70;;;20.60;99.90;;;;;;5010233;28;20192;-30
2023/08/26 02:43:49;;;;;;;7.05;5.32;;;20.50;99.90;;;;;;4995499;28;20176;-31
2023/08/26 02:46:16;;;;;;;6.50;4.70;;;20.50;99.90;;;;;;4993436;28;20184;-31
2023/08/26 02:48:42;;;;;;;5.88;4.68;;;20.40;99.90;;;;;;4992215;28;20287;-31
2023/08/26 02:51:07;;;;;;;6.15;5.28;;;20.40;99.90;;;;;;5012435;28;20179;-30
2023/08/26 02:53:33;;;;;;;5.60;5.10;;;20.30;99.90;;;;;;4992586;28;20175;-31
2023/08/26 02:56:00;;;;;;;5.97;5.38;;;20.30;99.90;;;;;;5012075;28;20211;-31
2023/08/26 02:58:26;;;;;;;6.18;5.18;;;20.30;99.90;;;;;;4995703;28;20203;-31
2023/08/26 03:00:55;;;;;;;6.22;5.05;;;20.30;99.90;;;;;;4995427;28;20270;-31
2023/08/26 03:03:21;;;;;;;6.60;5.18;;;20.20;99.90;;;;;;4996116;28;20190;-31
2023/08/26 03:05:47;;;;;;;7.05;5.10;;;20.20;99.90;;;;;;4991872;28;20180;-30
2023/08/26 03:08:13;;;;;;;5.20;4.70;;;20.20;99.90;;;;;;5011082;28;20290;-30
2023/08/26 03:10:38;;;;;;;5.07;4.60;;;20.20;99.90;;;;;;4996007;28;20321;-29
2023/08/26 03:13:10;;;;;;;4.90;4.47;;;20.10;99.90;;;;;;4992710;28;20187;-30
2023/08/26 03:15:35;;;;;;;7.07;4.90;;;20.20;99.90;;;;;;4995608;28;20219;-30
2023/08/26 03:18:02;;;;;;;6.28;4.63;;;20.20;99.90;;;;;;4995321;28;20250;-29
2023/08/26 03:20:27;;;;;;;8.35;5.38;;;20.20;99.90;;;;;;4997895;28;20270;-30
2023/08/26 03:22:53;;;;;;;5.10;4.57;;;20.20;99.90;;;;;;4992396;28;20266;-30
2023/08/26 03:25:19;;;;;;;5.88;4.95;;;20.20;99.90;;;;;;4993538;28;20183;-29
2023/08/26 03:27:45;;;;;;;7.03;5.15;;;20.30;99.90;;;;;;4991954;28;20207;-30
2023/08/26 03:30:11;;;;;;;5.28;4.70;;;20.30;99.90;;;;;;5011661;28;20233;-29
2023/08/26 03:32:37;;;;;;;7.35;5.30;;;20.30;99.90;;;;;;5000566;28;20297;-30
2023/08/26 03:35:04;;;;;;;6.05;5.25;;;20.20;99.90;;;;;;4994635;28;20218;-29
2023/08/26 03:37:31;;;;;;;6.60;5.43;;;20.30;99.90;;;;;;4995154;28;20187;-30
2023/08/26 03:39:57;;;;;;;5.93;5.05;;;20.30;99.90;;;;;;4995019;28;20325;-29
2023/08/26 03:42:22;;;;;;;6.00;5.20;;;20.20;99.90;;;;;;4993690;28;20184;-30
2023/08/26 03:44:48;;;;;;;7.43;5.22;;;20.20;99.90;;;;;;4994677;28;20183;-30
2023/08/26 03:47:14;;;;;;;8.18;5.22;;;20.20;99.90;;;;;;4992086;28;20187;-29
2023/08/26 03:49:40;;;;;;;7.47;5.20;;;20.10;99.90;;;;;;4991604;28;20200;-30
2023/08/26 03:52:06;;;;;;;7.90;5.70;;;20.10;99.90;;;;;;4994943;28;20172;-30
2023/08/26 03:54:32;;;;;;;6.00;5.40;;;20.10;99.90;;;;;;4997384;28;20182;-29
2023/08/26 03:56:57;;;;;;;7.75;5.22;;;20.10;99.90;;;;;;4991379;28;20183;-29
2023/08/26 03:59:23;;;;;;;5.43;4.90;;;20.10;99.90;;;;;;4994926;28;20210;-30
2023/08/26 04:01:50;;;;;;;6.20;5.60;;;20.10;99.90;;;;;;4991243;28;20176;-30
2023/08/26 04:04:16;;;;;;;6.40;5.00;;;20.10;99.90;;;;;;5010811;28;20185;-30
2023/08/26 04:06:42;;;;;;;7.60;5.00;;;20.00;99.90;;;;;;4991527;28;20194;-30
2023/08/26 04:09:08;;;;;;;8.15;5.63;;;20.10;99.90;;;;;;4993692;28;20199;-30
2023/08/26 04:11:34;;;;;;;9.77;5.43;;;20.10;99.90;;;;;;4994172;28;20266;-30
2023/08/26 04:14:00;;;;;;;5.72;4.80;;;20.10;99.90;;;;;;4997980;28;20217;-32
2023/08/26 04:16:26;;;;;;;5.82;4.90;;;20.10;99.90;;;;;;4994319;28;20238;-30
2023/08/26 04:18:52;;;;;;;4.80;4.40;;;20.10;99.90;;;;;;5001854;23;20216;-30
2023/08/26 04:21:18;;;;;;;5.72;4.75;;;20.10;99.90;;;;;;4973230;28;20276;-30
2023/08/26 04:23:44;;;;;;;5.13;4.63;;;20.10;99.90;;;;;;4976700;28;20287;-30
2023/08/26 04:26:10;;;;;;;6.78;5.00;;;20.10;99.90;;;;;;4991033;28;20190;-30
2023/08/26 04:28:35;;;;;;;5.68;4.93;;;20.10;99.90;;;;;;4977752;28;20208;-31
2023/08/26 04:31:01;;;;;;;5.40;4.88;;;20.20;99.90;;;;;;4991153;28;20215;-32
2023/08/26 04:33:27;;;;;;;6.10;4.38;;;20.20;99.90;;;;;;4974763;28;20196;-30
2023/08/26 04:35:53;;;;;;;4.88;4.35;;;20.20;99.90;;;;;;4975025;28;20215;-31
2023/08/26 04:38:20;;;;;;;5.10;4.60;;;20.20;99.90;;;;;;4974903;28;20196;-31
2023/08/26 04:40:46;;;;;;;5.13;4.63;;;20.20;99.90;;;;;;4983990;28;20234;-30
2023/08/26 04:43:12;;;;;;;4.72;4.28;;;20.30;99.90;;;;;;4989393;28;20230;-30
2023/08/26 04:45:39;;;;;;;5.18;4.68;;;20.30;99.90;;;;;;4993824;28;20732;-32
2023/08/26 04:48:06;;;;;;;5.60;4.97;;;20.30;99.90;;;;;;4993625;28;20258;-30
2023/08/26 04:50:33;;;;;;;5.97;5.35;;;20.20;99.90;;;;;;4992924;28;20270;-32
2023/08/26 04:52:59;;;;;;;7.18;5.10;;;20.20;99.90;;;;;;5010623;28;20179;-32
2023/08/26 04:55:25;;;;;;;6.40;5.20;;;20.20;99.90;;;;;;4992194;28;20210;-31
2023/08/26 04:57:51;;;;;;;4.45;4.05;;;20.10;99.90;;;;;;4993711;28;20221;-32
2023/08/26 05:00:17;;;;;;;6.05;4.72;;;20.00;99.90;;;;;;4993875;28;20203;-32
2023/08/26 05:02:43;;;;;;;5.25;4.25;;;20.00;99.90;;;;;;4993864;28;20175;-30
2023/08/26 05:05:10;;;;;;;4.95;4.47;;;20.00;99.90;;;;;;4993385;28;20764;-32
2023/08/26 05:07:36;;;;;;;4.80;4.30;;;20.00;99.90;;;;;;4993475;28;20267;-30
2023/08/26 05:10:05;;;;;;;5.60;5.10;;;20.00;99.90;;;;;;4987815;28;20208;-30
2023/08/26 05:12:32;;;;;;;4.95;4.07;;;20.00;99.90;;;;;;5006672;28;20298;-31
2023/08/26 05:14:57;;;;;;;5.15;4.65;;;20.00;99.90;;;;;;4973908;28;20300;-30
2023/08/26 05:17:23;;;;;;;5.60;4.60;;;20.00;99.90;;;;;;4974300;28;20238;-32
2023/08/26 05:19:50;;;;;;;5.25;4.30;;;20.10;99.90;;;;;;4974010;28;20215;-31
2023/08/26 05:22:16;;;;;;;5.47;4.32;;;20.10;99.90;;;;;;4991858;28;20186;-29
2023/08/26 05:24:42;;;;;;;8.38;4.47;;;20.10;99.90;;;;;;4974183;28;20172;-31
2023/08/26 05:27:07;;;;;;;6.25;4.85;;;20.10;99.90;;;;;;4974124;28;20183;-31
2023/08/26 05:29:33;;;;;;;6.78;4.85;;;20.20;99.90;;;;;;4973849;28;20290;-31
2023/08/26 05:32:00;;;;;;;6.32;4.75;;;20.10;99.90;;;;;;4974243;28;20183;-32
2023/08/26 05:34:26;;;;;;;8.80;4.75;;;20.20;99.90;;;;;;5000578;28;20184;-31
2023/08/26 05:36:52;;;;;;;6.57;4.28;;;20.20;99.90;;;;;;4974037;28;20270;-33
2023/08/26 05:39:19;;;;;;;6.50;4.97;;;20.20;99.90;;;;;;4986946;28;20286;-32
2023/08/26 05:41:45;;;;;;;7.10;4.90;;;20.20;99.90;;;;;;4981906;28;20266;-31
2023/08/26 05:44:11;;;;;;;5.28;4.40;;;20.20;99.90;;;;;;4973895;28;20235;-31
2023/08/26 05:46:37;;;;;;;5.55;4.65;;;20.30;99.90;;;;;;4976447;28;20184;-33
2023/08/26 05:49:03;;;;;;;5.63;4.35;;;20.30;99.90;;;;;;4993472;28;20202;-30
2023/08/26 05:51:29;;;;;;;7.85;5.00;;;20.30;99.90;;;;;;4993395;28;20183;-32
2023/08/26 05:53:57;;;;;;;4.90;4.35;;;20.40;99.90;;;;;;4993200;28;20242;-31
2023/08/26 05:56:22;;;;;;;6.90;5.05;;;20.40;99.90;;;;;;4984603;28;20211;-30
2023/08/26 05:58:48;;;;;;;6.72;5.30;;;20.50;99.90;;;;;;4973498;28;20220;-31
2023/08/26 06:01:14;;;;;;;8.07;4.80;;;20.40;99.90;;;;;;4973778;28;20214;-30
2023/08/26 06:03:45;;;;;;;6.88;5.20;;;20.50;99.90;;;;;;4989368;28;20871;-31
2023/08/26 06:06:11;;;;;;;7.60;5.13;;;20.60;99.90;;;;;;4972604;28;20184;-31
2023/08/26 06:08:37;;;;;;;7.20;4.78;;;20.60;99.90;;;;;;4990167;28;20203;-30
2023/08/26 06:11:03;;;;;;;7.20;4.85;;;20.60;99.90;;;;;;4973512;28;20188;-31
2023/08/26 06:13:29;;;;;;;5.30;4.80;;;20.60;99.90;;;;;;4957492;28;20184;-31
2023/08/26 06:15:58;;;;;;;8.73;5.05;;;20.60;99.90;;;;;;4989808;28;20219;-32
2023/08/26 06:18:25;;;;;;;7.15;4.57;;;20.60;99.90;;;;;;4977132;28;20216;-30
2023/08/26 06:20:52;;;;;;;6.65;4.63;;;20.50;99.90;;;;;;4981598;28;20176;-32
2023/08/26 06:23:18;;;;;;;8.05;4.85;;;20.50;99.90;;;;;;5004983;28;20264;-33
2023/08/26 06:25:57;;;;;;;5.43;4.80;;;20.50;99.90;;;;;;4977242;28;20183;-34
2023/08/26 06:28:25;;;;;;;5.70;4.50;;;20.60;99.90;;;;;;4988839;28;20257;-31
2023/08/26 06:30:56;;;;;;;6.28;4.90;;;20.70;99.90;;;;;;4977461;28;20172;-31
2023/08/26 06:33:22;;;;;;;5.97;4.53;;;20.80;99.90;;;;;;4977259;28;20192;-31
2023/08/26 06:35:48;;;;;;;6.65;4.20;;;20.90;99.90;;;;;;4977214;28;20701;-31
2023/08/26 06:38:15;;;;;;;7.05;3.90;;;21.00;99.90;;;;;;4977241;28;20219;-30
2023/08/26 06:40:41;;;;;;;5.47;4.30;;;21.00;99.90;;;;;;4985037;28;20286;-33
2023/08/26 06:43:07;;;;;;;5.68;3.95;;;21.00;99.90;;;;;;4976777;28;20207;-34
2023/08/26 06:45:35;;;;;;;4.70;3.78;;;21.10;99.90;;;;;;4992528;28;20187;-30
2023/08/26 06:48:04;;;;;;;7.55;4.05;;;21.20;99.90;;;;;;4977178;28;20176;-32
2023/08/26 06:50:30;;;;;;;4.60;3.60;;;21.30;99.90;;;;;;4977094;28;20666;-32
2023/08/26 06:52:56;;;;;;;5.68;3.30;;;21.40;99.90;;;;;;4996726;28;20229;-31
2023/08/26 06:55:22;;;;;;;8.02;3.65;;;21.50;99.90;;;;;;4995083;28;20207;-30
2023/08/26 06:57:48;;;;;;;5.35;3.20;;;21.60;99.90;;;;;;4995998;28;20265;-30
2023/08/26 07:00:15;;;;;;;3.90;2.88;;;21.50;99.90;;;;;;4995210;28;20274;-35
2023/08/26 07:02:41;;;;;;;6.15;3.15;;;21.60;99.90;;;;;;4996188;28;20187;-30
2023/08/26 07:05:08;;;;;;;4.05;3.00;;;21.60;99.90;;;;;;4988196;28;20218;-31
2023/08/26 07:07:33;;;;;;;4.95;3.08;;;21.50;99.90;;;;;;4995735;28;20187;-33
2023/08/26 07:09:59;;;;;;;5.32;3.03;;;21.60;99.90;;;;;;4995827;28;20210;-31
2023/08/26 07:12:25;;;;;;;5.20;3.03;;;21.50;99.90;;;;;;4995741;28;20262;-31
2023/08/26 07:14:51;;;;;;;4.25;3.13;;;21.50;99.90;;;;;;4992032;28;20323;-30
2023/08/26 07:17:17;;;;;;;5.47;3.15;;;21.50;99.90;;;;;;5007933;28;20184;-31
2023/08/26 07:19:43;;;;;;;4.13;3.13;;;21.60;99.90;;;;;;4994799;28;20219;-31
2023/08/26 07:22:09;;;;;;;7.15;3.53;;;21.60;99.90;;;;;;4995959;28;20179;-31
2023/08/26 07:24:35;;;;;;;5.60;3.25;;;21.60;99.90;;;;;;4995435;28;20179;-30
2023/08/26 07:27:01;;;;;;;3.95;2.90;;;21.70;99.90;;;;;;4995227;28;20270;-31
2023/08/26 07:29:27;;;;;;;4.75;3.10;;;21.70;99.90;;;;;;4995373;28;20297;-34
2023/08/26 07:31:52;;;;;;;6.60;3.00;;;21.70;99.90;;;;;;4995092;28;20190;-33
2023/08/26 07:34:18;;;;;;;5.28;3.17;;;21.70;99.90;;;;;;4980553;28;20279;-30
2023/08/26 07:36:44;;;;;;;8.27;3.13;;;21.70;99.90;;;;;;4975069;28;20302;-32
2023/08/26 07:39:10;;;;;;;7.32;3.30;;;21.70;99.90;;;;;;4975496;28;20226;-30
2023/08/26 07:41:36;;;;;;;4.22;3.03;;;21.90;99.90;;;;;;4975613;28;20184;-31
2023/08/26 07:44:03;;;;;;;6.18;3.03;;;22.00;99.90;;;;;;4976029;28;20227;-37
2023/08/26 07:46:28;;;;;;;6.53;2.80;;;22.20;99.90;;;;;;4975907;28;20195;-32
2023/08/26 07:48:54;;;;;;;3.70;2.60;;;22.30;99.90;;;;;;4991751;28;20208;-31
2023/08/26 07:51:20;;;;;;;5.40;3.10;;;22.40;99.90;;;;;;4982948;28;20270;-31
2023/08/26 07:53:46;;;;;;;6.97;2.55;;;22.40;99.90;;;;;;4995290;28;20180;-31
2023/08/26 07:56:12;;;;;;;6.88;3.40;;;22.30;99.90;;;;;;4994696;28;20203;-31
2023/08/26 07:58:37;;;;;;;4.18;2.90;;;22.40;99.90;;;;;;4994922;28;20266;-30
2023/08/26 08:01:03;;;;;;;6.60;3.08;;;22.50;99.90;;;;;;4982254;28;20184;-32
2023/08/26 08:03:29;;;;;;;6.32;3.10;;;22.70;99.90;;;;;;4983432;28;20266;-31
2023/08/26 08:05:55;;;;;;;4.88;3.20;;;22.60;99.90;;;;;;4975563;28;20203;-34
2023/08/26 08:08:21;;;;;;;5.03;2.97;;;22.50;99.90;;;;;;4975302;28;20290;-30
2023/08/26 08:10:46;;;;;;;4.32;2.70;;;22.50;99.90;;;;;;4975016;28;20191;-30
2023/08/26 08:13:12;;;;;;;4.15;2.63;;;22.50;99.90;;;;;;4997520;28;20187;-30
2023/08/26 08:15:38;;;;;;;5.43;2.70;;;22.40;99.90;;;;;;4994291;28;20257;-31
2023/08/26 08:18:04;;;;;;;6.80;2.53;;;22.30;99.90;;;;;;4981645;28;20182;-34
2023/08/26 08:20:30;;;;;;;5.50;2.67;;;22.30;99.90;;;;;;4974323;28;20199;-31
2023/08/26 08:22:56;;;;;;;7.95;3.30;;;22.20;99.90;;;;;;4975271;28;20180;-33
2023/08/26 08:25:22;;;;;;;6.82;2.70;;;22.20;99.90;;;;;;4986839;28;20222;-31
2023/08/26 08:27:48;;;;;;;7.10;2.92;;;22.30;99.90;;;;;;4990547;28;20187;-32
2023/08/26 08:30:14;;;;;;;4.78;3.03;;;22.40;99.90;;;;;;4974883;28;20203;-31
2023/08/26 08:32:40;;;;;;;5.35;2.72;;;22.50;99.90;;;;;;4974809;28;20278;-31
2023/08/26 08:35:07;;;;;;;4.28;3.00;;;22.60;99.90;;;;;;4974767;28;20214;-30
2023/08/26 08:37:33;;;;;;;5.72;3.15;;;22.70;99.90;;;;;;4974499;28;20187;-32
2023/08/26 08:39:59;;;;;;;5.03;2.80;;;22.70;99.90;;;;;;4973785;28;20191;-30
2023/08/26 08:42:25;;;;;;;5.18;2.58;;;22.80;99.90;;;;;;4974736;28;20188;-30
2023/08/26 08:44:51;;;;;;;4.10;2.85;;;22.90;99.90;;;;;;4974718;28;20226;-30
2023/08/26 08:47:17;;;;;;;3.80;2.90;;;22.90;99.90;;;;;;4974525;28;20176;-32
2023/08/26 08:49:44;;;;;;;4.30;2.83;;;22.90;99.90;;;;;;4974349;28;20349;-31
2023/08/26 08:52:13;;;;;;;6.63;2.83;;;22.90;99.90;;;;;;4974832;28;20175;-34
2023/08/26 08:54:40;;;;;;;7.00;3.17;;;22.80;99.90;;;;;;4974536;28;20278;-31
2023/08/26 08:57:11;;;;;;;4.80;2.90;;;22.80;99.90;;;;;;4975852;28;20208;-31
2023/08/26 08:59:38;;;;;;;5.22;3.05;;;22.90;99.90;;;;;;5007571;28;20233;-32
2023/08/26 09:02:05;;;;;;;6.00;3.10;;;23.00;99.90;;;;;;4989443;28;20203;-31
2023/08/26 09:04:32;;;;;;;6.97;2.83;;;23.00;99.90;;;;;;4990285;28;20182;-33
2023/08/26 09:06:59;;;;;;;5.18;2.90;;;23.10;99.90;;;;;;4993840;28;20237;-33
2023/08/26 09:09:24;;;;;;;4.90;2.60;;;23.10;99.90;;;;;;4994907;28;20289;-31
2023/08/26 09:11:51;;;;;;;6.93;3.05;;;23.20;99.90;;;;;;4974473;28;20734;-31
2023/08/26 09:14:17;;;;;;;3.45;2.88;;;23.20;99.90;;;;;;4974144;28;20232;-31
2023/08/26 09:16:43;;;;;;;3.92;2.70;;;23.10;99.90;;;;;;4973799;28;20204;-30
2023/08/26 09:19:11;;;;;;;7.75;2.88;;;23.20;99.90;;;;;;4957674;28;20216;-31
2023/08/26 09:21:42;;;;;;;4.13;2.80;;;23.30;99.90;;;;;;4958008;28;20179;-31
2023/08/26 09:24:15;;;;;;;3.80;2.50;;;23.40;99.90;;;;;;4957721;28;20254;-30
2023/08/26 09:26:58;;;;;;;3.80;2.85;;;23.50;99.90;;;;;;4957949;28;20188;-30
2023/08/26 09:29:25;;;;;;;5.85;2.83;;;23.60;99.90;;;;;;4974305;28;20214;-32
2023/08/26 09:31:55;;;;;;;7.30;3.00;;;23.70;99.90;;;;;;4957868;28;20219;-30
2023/08/26 09:34:32;;;;;;;4.82;2.50;;;23.80;99.90;;;;;;4958058;28;20693;-31
2023/08/26 09:36:59;;;;;;;6.57;2.70;;;23.90;99.90;;;;;;4966094;28;20265;-30
2023/08/26 09:39:26;;;;;;;5.15;2.67;;;23.90;99.90;;;;;;4973535;28;20204;-32
2023/08/26 09:41:55;;;;;;;4.72;2.75;;;23.90;99.90;;;;;;4958053;28;20282;-32
2023/08/26 09:44:21;;;;;;;5.30;2.78;;;24.00;99.90;;;;;;4973535;28;20183;-33
2023/08/26 09:46:48;;;;;;;5.03;2.75;;;24.10;99.90;;;;;;4958083;28;20188;-31
2023/08/26 09:49:16;;;;;;;5.78;2.60;;;24.20;99.90;;;;;;4957705;28;20286;-31
2023/08/26 09:51:50;;;;;;;7.60;3.22;;;24.20;99.90;;;;;;4960516;28;20195;-31
2023/08/26 09:54:17;;;;;;;5.20;2.90;;;24.20;99.90;;;;;;4961676;28;20176;-31
2023/08/26 09:56:45;;;;;;;3.63;2.50;;;24.30;99.90;;;;;;4961465;28;20282;-31
2023/08/26 09:59:11;;;;;;;5.40;2.97;;;24.40;99.90;;;;;;4961559;28;20207;-30
2023/08/26 10:01:39;;;;;;;4.22;3.08;;;24.40;99.90;;;;;;4961596;28;20186;-31
2023/08/26 10:04:15;;;;;;;4.78;2.80;;;24.40;99.90;;;;;;4977192;28;20184;-31
2023/08/26 10:06:53;;;;;;;3.33;2.80;;;24.20;99.90;;;;;;4961208;28;20184;-31
2023/08/26 10:09:31;;;;;;;3.85;3.35;;;24.30;99.90;;;;;;4956886;28;20220;-31
2023/08/26 10:12:00;;;;;;;5.43;2.95;;;24.30;99.90;;;;;;4977349;28;20179;-32
2023/08/26 10:14:29;;;;;;;7.72;2.97;;;24.40;99.90;;;;;;4961016;28;20214;-31
2023/08/26 10:16:59;;;;;;;7.18;3.38;;;24.30;99.90;;;;;;4961285;28;20298;-31
2023/08/26 10:19:27;;;;;;;5.70;2.80;;;24.20;99.90;;;;;;4984818;23;20224;-31
2023/08/26 10:21:54;;;;;;;4.35;2.90;;;24.30;99.90;;;;;;4991729;28;20205;-31
2023/08/26 10:24:20;;;;;;;4.45;2.63;;;24.50;99.90;;;;;;4985251;28;20187;-31
2023/08/26 10:26:47;;;;;;;6.32;3.10;;;24.50;99.90;;;;;;4993124;28;20187;-31
2023/08/26 10:29:13;;;;;;;4.38;3.08;;;24.40;99.90;;;;;;4993129;28;20199;-31
2023/08/26 10:31:40;;;;;;;8.10;3.03;;;24.30;99.90;;;;;;4996428;28;20222;-31
2023/08/26 10:34:05;;;;;;;5.80;2.83;;;24.30;99.90;;;;;;4996584;28;20266;-31
2023/08/26 10:36:37;;;;;;;7.97;3.13;;;24.10;99.90;;;;;;5012711;28;20752;-31
2023/08/26 10:39:11;;;;;;;4.35;3.10;;;24.00;99.90;;;;;;4995779;28;20274;-32
2023/08/26 10:41:36;;;;;;;8.48;3.45;;;23.80;99.90;;;;;;4988374;28;20183;-31
2023/08/26 10:44:03;;;;;;;4.53;2.92;;;23.70;99.90;;;;;;4995696;28;20209;-31
2023/08/26 10:46:53;;;;;;;6.60;2.90;;;23.50;99.90;;;;;;5006386;28;20183;-31
2023/08/26 10:49:27;;;;;;;5.78;3.53;;;23.40;99.90;;;;;;5006643;28;20206;-31
2023/08/26 10:52:16;;;;;;;5.55;3.13;;;23.30;99.90;;;;;;4994822;28;20187;-30
2023/08/26 10:54:46;;;;;;;9.02;3.78;;;23.30;99.90;;;;;;5011649;28;20206;-30
2023/08/26 10:57:12;;;;;;;5.97;3.05;;;23.10;99.90;;;;;;4987690;28;20287;-31
2023/08/26 10:59:45;;;;;;;4.97;3.05;;;23.20;99.90;;;;;;5009026;28;20203;-31
2023/08/26 11:02:11;;;;;;;4.20;3.17;;;23.30;99.90;;;;;;4995128;28;20172;-31
2023/08/26 11:04:42;;;;;;;7.43;2.83;;;23.30;99.90;;;;;;4996253;28;20278;-31
2023/08/26 11:07:15;;;;;;;5.30;3.13;;;23.40;99.90;;;;;;5000648;28;20180;-31
2023/08/26 11:09:41;;;;;;;6.00;3.38;;;23.40;99.90;;;;;;4990071;28;20204;-31
2023/08/26 11:12:23;;;;;;;5.60;3.28;;;23.40;99.90;;;;;;4992051;28;20235;-30
2023/08/26 11:14:49;;;;;;;7.13;3.50;;;23.20;99.90;;;;;;4975973;28;20176;-30
2023/08/26 11:17:15;;;;;;;4.53;3.10;;;23.20;99.90;;;;;;4985590;28;20252;-30
2023/08/26 11:19:41;;;;;;;5.43;3.42;;;23.00;99.90;;;;;;5011737;28;20219;-30
2023/08/26 11:22:07;;;;;;;3.72;2.85;;;22.90;99.90;;;;;;4995707;28;20180;-30
2023/08/26 11:24:32;;;;;;;6.32;3.63;;;22.90;99.90;;;;;;4988047;28;20184;-30
2023/08/26 11:27:01;;;;;;;6.05;3.33;;;22.90;99.90;;;;;;4984223;28;20180;-31
2023/08/26 11:29:30;;;;;;;9.18;3.67;;;22.80;99.90;;;;;;4983323;28;20207;-31
2023/08/26 11:31:58;;;;;;;6.78;3.42;;;22.80;99.90;;;;;;4985829;28;20243;-32
2023/08/26 11:34:28;;;;;;;5.07;3.25;;;22.80;99.90;;;;;;4982693;28;20186;-32
2023/08/26 11:36:58;;;;;;;5.53;3.33;;;22.70;99.90;;;;;;4995624;28;20215;-32
2023/08/26 11:39:36;;;;;;;5.15;3.55;;;22.70;99.90;;;;;;5003805;28;20203;-32
2023/08/26 11:42:12;;;;;;;4.30;3.20;;;22.80;99.90;;;;;;4995380;28;20645;-32
2023/08/26 11:44:39;;;;;;;5.82;3.25;;;22.70;99.90;;;;;;5003675;28;20171;-32
2023/08/26 11:47:07;;;;;;;6.90;3.35;;;22.70;99.90;;;;;;4995387;28;20191;-31
2023/08/26 11:49:33;;;;;;;6.32;3.45;;;22.60;99.90;;;;;;5011666;28;20213;-32
2023/08/26 11:52:05;;;;;;;7.60;4.20;;;22.60;99.90;;;;;;4995336;28;20183;-32
2023/08/26 11:54:36;;;;;;;5.68;3.75;;;22.50;99.90;;;;;;5003184;28;20270;-32
2023/08/26 11:57:06;;;;;;;5.55;3.22;;;22.40;99.90;;;;;;4994539;28;20210;-31
2023/08/26 11:59:38;;;;;;;7.90;3.58;;;22.30;99.90;;;;;;4995063;28;20261;-31
2023/08/26 12:02:20;;;;;;;7.22;3.92;;;22.20;99.90;;;;;;5000219;28;20242;-32
2023/08/26 12:04:46;;;;;;;6.55;3.75;;;22.10;99.90;;;;;;4975236;28;20192;-31
2023/08/26 12:07:12;;;;;;;6.18;3.75;;;22.00;99.90;;;;;;4979676;28;20183;-31
2023/08/26 12:09:39;;;;;;;5.75;3.75;;;22.00;99.90;;;;;;4991696;28;20231;-31
2023/08/26 12:12:08;;;;;;;5.80;3.40;;;21.90;99.90;;;;;;4987049;28;20184;-31
2023/08/26 12:14:35;;;;;;;10.77;4.00;;;21.90;99.90;;;;;;5001990;28;20598;-31
2023/08/26 12:17:04;;;;;;;7.93;3.97;;;21.90;99.90;;;;;;5003029;28;20213;-31
2023/08/26 12:19:34;;;;;;;7.28;4.10;;;21.80;99.90;;;;;;4994542;28;20215;-31
2023/08/26 12:22:00;;;;;;;5.50;4.20;;;21.60;99.90;;;;;;4996434;28;20184;-31
2023/08/26 12:24:26;;;;;;;8.25;3.42;;;21.40;99.90;;;;;;4994476;28;20274;-30
2023/08/26 12:26:53;;;;;;;6.00;3.28;;;21.30;99.90;;;;;;4986201;28;20215;-31
2023/08/26 12:29:19;;;;;;;6.85;3.40;;;21.10;99.90;;;;;;5002569;28;20231;-30
2023/08/26 12:31:48;;;;;;;6.25;3.28;;;20.90;99.90;;;;;;4991272;28;20176;-31
2023/08/26 12:34:14;;;;;;;8.63;3.08;;;20.90;99.90;;;;;;4994281;28;20186;-31
2023/08/26 12:36:39;;;;;;;10.75;3.50;;;20.70;99.90;;;;;;4986671;28;20215;-31
2023/08/26 12:39:05;;;;;;;5.05;3.30;;;20.70;99.90;;;;;;5010530;28;20210;-31
2023/08/26 12:41:31;;;;;;;7.35;3.58;;;20.80;99.90;;;;;;5010677;28;20207;-31
2023/08/26 12:43:57;;;;;;;7.72;3.63;;;20.80;99.90;;;;;;4991889;28;20214;-31
2023/08/26 12:46:24;;;;;;;4.82;3.17;;;20.80;99.90;;;;;;4987246;28;20352;-31